createdAt,value
2022-08-22T00:03:15.495Z,18.69
2022-08-22T00:08:21.928Z,18.63
2022-08-22T00:13:23.793Z,18.34
2022-08-22T00:18:34.511Z,18.04
2022-08-22T00:23:45.607Z,18.22
2022-08-22T00:28:57.341Z,18.06
2022-08-22T00:34:03.575Z,17.84
2022-08-22T00:39:22.361Z,18.08
2022-08-22T00:44:44.219Z,18.15
2022-08-22T00:50:19.486Z,18.13
2022-08-22T00:55:38.350Z,17.72
2022-08-22T01:00:50.778Z,17.70
2022-08-22T01:06:21.905Z,17.45
2022-08-22T01:11:45.404Z,17.37
2022-08-22T01:16:47.275Z,17.43
2022-08-22T01:22:09.902Z,17.50
2022-08-22T01:27:51.136Z,17.45
2022-08-22T01:33:11.392Z,17.08
2022-08-22T01:38:24.707Z,16.98
2022-08-22T01:44:01.269Z,16.83
2022-08-22T01:49:21.913Z,16.70
2022-08-22T01:55:04.913Z,16.74
2022-08-22T02:00:17.179Z,16.99
2022-08-22T02:05:39.799Z,17.12
2022-08-22T02:11:38.966Z,16.96
2022-08-22T02:16:44.085Z,16.86
2022-08-22T02:22:22.921Z,16.83
2022-08-22T02:27:49.147Z,16.44
2022-08-22T02:33:16.059Z,16.30
2022-08-22T02:38:36.728Z,16.53
2022-08-22T02:43:57.363Z,16.51
2022-08-22T02:49:27.467Z,16.61
2022-08-22T02:54:38.485Z,16.57
2022-08-22T03:00:31.629Z,16.53
2022-08-22T03:05:37.381Z,16.26
2022-08-22T03:10:49.149Z,16.21
2022-08-22T03:15:59.716Z,16.31
2022-08-22T03:21:23.216Z,16.20
2022-08-22T03:26:47.252Z,15.71
2022-08-22T03:32:09.976Z,15.52
2022-08-22T03:37:35.721Z,15.70
2022-08-22T03:42:59.830Z,15.88
2022-08-22T03:48:32.010Z,15.88
2022-08-22T03:53:45.809Z,15.61
2022-08-22T03:59:10.143Z,15.37
2022-08-22T04:04:20.986Z,15.50
2022-08-22T04:09:44.943Z,15.69
2022-08-22T04:15:15.811Z,15.70
2022-08-22T04:20:32.563Z,15.62
2022-08-22T04:26:11.893Z,15.26
2022-08-22T04:31:18.961Z,15.52
2022-08-22T04:36:35.027Z,15.74
2022-08-22T04:41:55.021Z,15.85
2022-08-22T04:46:59.411Z,16.07
2022-08-22T04:52:39.532Z,16.31
2022-08-22T04:58:07.076Z,16.50
2022-08-22T05:03:15.494Z,16.64
2022-08-22T05:08:23.617Z,16.68
2022-08-22T05:13:32.148Z,16.55
2022-08-22T05:18:39.897Z,16.46
2022-08-22T05:23:43.703Z,16.22
2022-08-22T05:28:52.959Z,16.32
2022-08-22T05:34:04.621Z,16.37
2022-08-22T05:39:13.433Z,16.40
2022-08-22T05:44:22.004Z,16.41
2022-08-22T05:49:49.394Z,16.52
2022-08-22T05:54:57.279Z,16.74
2022-08-22T06:00:12.827Z,16.95
2022-08-22T06:05:23.773Z,17.19
2022-08-22T06:10:32.215Z,17.39
2022-08-22T06:16:07.526Z,17.60
2022-08-22T06:21:19.013Z,17.96
2022-08-22T06:26:21.670Z,18.47
2022-08-22T06:31:30.638Z,19.01
2022-08-22T06:36:36.015Z,19.46
2022-08-22T06:41:48.141Z,19.74
2022-08-22T06:46:54.516Z,19.81
2022-08-22T06:52:02.083Z,19.77
2022-08-22T06:57:06.644Z,19.81
2022-08-22T07:02:21.476Z,20.09
2022-08-22T07:07:26.756Z,20.40
2022-08-22T07:12:32.254Z,20.38
2022-08-22T07:17:36.870Z,20.53
2022-08-22T07:22:56.370Z,20.61
2022-08-22T07:28:04.038Z,20.94
2022-08-22T07:33:26.253Z,21.36
2022-08-22T07:38:43.072Z,21.69
2022-08-22T07:44:09.544Z,22.10
2022-08-22T07:49:22.380Z,22.42
2022-08-22T07:54:35.634Z,23.13
2022-08-22T07:59:39.947Z,23.51
2022-08-22T08:04:42.751Z,23.73
2022-08-22T08:09:53.953Z,24.31
2022-08-22T08:14:56.741Z,24.11
2022-08-22T08:20:03.134Z,24.93
2022-08-22T08:25:07.554Z,25.22
2022-08-22T08:30:34.366Z,25.60
2022-08-22T08:35:42.370Z,25.65
2022-08-22T08:41:23.956Z,26.21
2022-08-22T08:46:25.678Z,26.35
2022-08-22T08:51:43.075Z,25.96
2022-08-22T08:57:08.562Z,25.49
2022-08-22T09:02:50.510Z,25.62
2022-08-22T09:08:14.371Z,25.46
2022-08-22T09:13:41.759Z,25.58
2022-08-22T09:19:04.921Z,26.61
2022-08-22T09:24:58.154Z,27.32
2022-08-22T09:30:11.645Z,26.67
2022-08-22T09:35:19.302Z,27.52
2022-08-22T09:40:39.644Z,27.32
2022-08-22T09:46:02.094Z,27.98
2022-08-22T09:51:31.450Z,29.02
2022-08-22T09:56:53.219Z,29.63
2022-08-22T10:02:15.669Z,29.79
2022-08-22T10:07:55.029Z,29.97
2022-08-22T10:13:04.428Z,30.14
2022-08-22T10:18:27.137Z,30.02
2022-08-22T10:23:56.227Z,30.48
2022-08-22T10:29:25.838Z,30.36
2022-08-22T10:34:36.518Z,29.97
2022-08-22T10:39:55.913Z,29.64
2022-08-22T10:45:35.215Z,29.02
2022-08-22T10:50:43.811Z,28.57
2022-08-22T10:55:50.644Z,28.19
2022-08-22T11:01:02.079Z,28.10
2022-08-22T11:06:44.806Z,28.44
2022-08-22T11:12:19.345Z,28.71
2022-08-22T11:17:38.122Z,28.79
2022-08-22T11:23:37.691Z,29.27
2022-08-22T11:28:58.326Z,29.66
2022-08-22T11:34:23.826Z,29.23
2022-08-22T11:40:01.407Z,29.07
2022-08-22T11:45:06.860Z,29.22
2022-08-22T11:50:35.549Z,29.32
2022-08-22T11:55:48.564Z,29.54
2022-08-22T12:01:00.616Z,29.77
2022-08-22T12:06:18.236Z,30.08
2022-08-22T12:11:31.169Z,30.23
2022-08-22T12:16:45.152Z,30.12
2022-08-22T12:22:28.928Z,29.69
2022-08-22T12:27:55.269Z,29.53
2022-08-22T12:33:07.544Z,29.96
2022-08-22T12:38:38.544Z,30.22
2022-08-22T12:43:49.779Z,30.16
2022-08-22T12:49:13.803Z,30.29
2022-08-22T12:54:46.389Z,30.28
2022-08-22T12:59:52.370Z,30.15
2022-08-22T13:04:58.534Z,29.86
2022-08-22T13:10:03.122Z,29.54
2022-08-22T13:15:28.269Z,29.39
2022-08-22T13:20:39.828Z,29.41
2022-08-22T13:26:08.331Z,29.76
2022-08-22T13:31:24.031Z,30.25
2022-08-22T13:36:28.683Z,30.91
2022-08-22T13:41:49.902Z,31.44
2022-08-22T13:47:13.959Z,31.59
2022-08-22T13:52:30.213Z,31.13
2022-08-22T13:57:40.700Z,30.86
2022-08-22T14:03:05.645Z,30.48
2022-08-22T14:08:30.219Z,30.82
2022-08-22T14:13:38.050Z,30.86
2022-08-22T14:18:48.069Z,31.43
2022-08-22T14:23:53.554Z,31.43
2022-08-22T14:28:59.365Z,31.39
2022-08-22T14:34:12.885Z,31.95
2022-08-22T14:39:33.299Z,31.58
2022-08-22T14:45:08.442Z,30.86
2022-08-22T14:50:48.972Z,30.33
2022-08-22T14:56:30.538Z,30.55
2022-08-22T15:01:37.294Z,30.92
2022-08-22T15:06:51.372Z,30.97
2022-08-22T15:11:53.478Z,31.02
2022-08-22T15:16:59.447Z,30.93
2022-08-22T15:22:19.008Z,30.30
2022-08-22T15:27:21.797Z,30.00
2022-08-22T15:32:35.270Z,30.12
2022-08-22T15:37:55.575Z,30.13
2022-08-22T15:42:58.324Z,29.66
2022-08-22T15:48:04.479Z,29.30
2022-08-22T15:53:15.446Z,29.03
2022-08-22T15:58:24.945Z,29.04
2022-08-22T16:03:31.039Z,28.96
2022-08-22T16:08:49.907Z,28.81
2022-08-22T16:14:21.340Z,28.65
2022-08-22T16:19:27.819Z,28.90
2022-08-22T16:24:53.952Z,29.14
2022-08-22T16:30:05.644Z,29.33
2022-08-22T16:35:07.875Z,29.35
2022-08-22T16:40:16.962Z,29.24
2022-08-22T16:45:24.626Z,29.18
2022-08-22T16:50:38.564Z,29.04
2022-08-22T16:56:09.242Z,28.91
2022-08-22T17:01:23.708Z,28.85
2022-08-22T17:07:02.757Z,28.65
2022-08-22T17:12:29.528Z,28.57
2022-08-22T17:17:34.097Z,28.51
2022-08-22T17:23:00.201Z,28.36
2022-08-22T17:28:26.254Z,28.16
2022-08-22T17:33:55.212Z,28.04
2022-08-22T17:39:24.579Z,27.72
2022-08-22T17:44:38.906Z,27.69
2022-08-22T17:49:45.210Z,27.59
2022-08-22T17:55:13.163Z,27.39
2022-08-22T18:00:47.465Z,27.14
2022-08-22T18:06:18.863Z,27.00
2022-08-22T18:11:28.031Z,26.84
2022-08-22T18:16:29.699Z,26.85
2022-08-22T18:21:37.121Z,26.82
2022-08-22T18:26:41.479Z,26.71
2022-08-22T18:32:00.551Z,26.43
2022-08-22T18:37:30.667Z,26.21
2022-08-22T18:42:48.208Z,26.02
2022-08-22T18:47:57.034Z,25.80
2022-08-22T18:52:59.563Z,25.79
2022-08-22T18:58:19.485Z,25.82
2022-08-22T19:04:14.985Z,25.65
2022-08-22T19:09:54.770Z,25.54
2022-08-22T19:15:22.517Z,25.36
2022-08-22T19:20:49.635Z,25.45
2022-08-22T19:26:26.247Z,25.46
2022-08-22T19:31:41.873Z,25.48
2022-08-22T19:36:47.908Z,25.49
2022-08-22T19:41:52.476Z,25.42
2022-08-22T19:47:12.024Z,25.34
2022-08-22T19:52:16.472Z,24.90
2022-08-22T19:57:48.940Z,24.83
2022-08-22T20:03:02.408Z,24.79
2022-08-22T20:08:19.453Z,24.67
2022-08-22T20:13:24.330Z,24.67
2022-08-22T20:19:17.304Z,24.47
2022-08-22T20:24:39.812Z,24.44
2022-08-22T20:30:13.793Z,24.27
2022-08-22T20:35:21.670Z,23.96
2022-08-22T20:40:55.164Z,23.19
2022-08-22T20:46:25.423Z,23.56
2022-08-22T20:51:31.648Z,23.56
2022-08-22T20:56:36.344Z,23.48
2022-08-22T21:01:39.073Z,23.45
2022-08-22T21:06:40.705Z,23.60
2022-08-22T21:11:50.890Z,23.66
2022-08-22T21:16:53.266Z,23.62
2022-08-22T21:22:18.013Z,23.51
2022-08-22T21:27:33.126Z,23.43
2022-08-22T21:32:47.968Z,23.17
2022-08-22T21:37:52.215Z,22.82
2022-08-22T21:43:27.397Z,22.58
2022-08-22T21:48:44.042Z,22.40
2022-08-22T21:53:45.724Z,22.41
2022-08-22T21:58:47.384Z,22.43
2022-08-22T22:03:49.111Z,22.31
2022-08-22T22:08:50.929Z,22.48
2022-08-22T22:13:52.553Z,22.62
2022-08-22T22:18:54.783Z,22.69
2022-08-22T22:23:58.616Z,22.55
2022-08-22T22:29:00.570Z,22.43
2022-08-22T22:34:02.593Z,22.25
2022-08-22T22:39:05.763Z,22.10
2022-08-22T22:44:07.530Z,21.96
2022-08-22T22:49:09.184Z,21.97
2022-08-22T22:54:11.196Z,21.75
2022-08-22T22:59:13.734Z,21.67
2022-08-22T23:04:16.634Z,21.75
2022-08-22T23:09:18.263Z,21.74
2022-08-22T23:14:19.984Z,21.70
2022-08-22T23:19:21.601Z,21.64
2022-08-22T23:24:24.576Z,21.70
2022-08-22T23:29:26.548Z,21.61
2022-08-22T23:34:35.490Z,21.51
2022-08-22T23:39:38.467Z,21.41
2022-08-22T23:44:41.700Z,21.31
2022-08-22T23:49:43.675Z,21.25
2022-08-22T23:54:45.319Z,20.72
2022-08-22T23:59:57.837Z,20.60
